sensor_id;sensor_type;location;lat;lon;timestamp;pressure;altitude;pressure_sealevel;temperature;humidity
21826;BME280;11075;47.944;11.776;2023-05-23T00:01:05;94503.94;;;7.52;53.58
21826;BME280;11075;47.944;11.776;2023-05-23T00:03:33;94502.47;;;7.63;52.68
21826;BME280;11075;47.944;11.776;2023-05-23T00:06:00;94510.28;;;6.57;57.39
21826;BME280;11075;47.944;11.776;2023-05-23T00:08:27;94504.81;;;7.26;54.78
21826;BME280;11075;47.944;11.776;2023-05-23T00:10:54;94504.75;;;6.28;58.60
21826;BME280;11075;47.944;11.776;2023-05-23T00:13:21;94505.91;;;7.72;51.56
21826;BME280;11075;47.944;11.776;2023-05-23T00:15:48;94504.16;;;7.38;53.47
21826;BME280;11075;47.944;11.776;2023-05-23T00:18:15;94509.28;;;7.90;51.65
21826;BME280;11075;47.944;11.776;2023-05-23T00:20:43;94515.41;;;7.61;52.33
21826;BME280;11075;47.944;11.776;2023-05-23T00:23:11;94514.69;;;7.81;51.45
21826;BME280;11075;47.944;11.776;2023-05-23T00:25:45;94507.41;;;7.52;52.63
21826;BME280;11075;47.944;11.776;2023-05-23T00:28:19;94507.69;;;7.04;54.03
21826;BME280;11075;47.944;11.776;2023-05-23T00:30:47;94508.22;;;6.72;55.50
21826;BME280;11075;47.944;11.776;2023-05-23T00:33:17;94513.91;;;7.43;52.58
21826;BME280;11075;47.944;11.776;2023-05-23T00:35:47;94513.06;;;7.04;54.35
21826;BME280;11075;47.944;11.776;2023-05-23T00:38:15;94513.13;;;7.42;51.88
21826;BME280;11075;47.944;11.776;2023-05-23T00:40:42;94512.72;;;7.14;52.54
21826;BME280;11075;47.944;11.776;2023-05-23T00:43:09;94512.19;;;7.38;52.46
21826;BME280;11075;47.944;11.776;2023-05-23T00:45:36;94516.41;;;7.48;51.84
21826;BME280;11075;47.944;11.776;2023-05-23T00:48:05;94523.94;;;6.90;53.07
21826;BME280;11075;47.944;11.776;2023-05-23T00:50:32;94526.97;;;6.72;54.67
21826;BME280;11075;47.944;11.776;2023-05-23T00:52:59;94526.63;;;6.99;53.85
21826;BME280;11075;47.944;11.776;2023-05-23T00:55:27;94523.25;;;7.19;52.02
21826;BME280;11075;47.944;11.776;2023-05-23T00:57:54;94532.97;;;6.69;55.08
21826;BME280;11075;47.944;11.776;2023-05-23T01:00:24;94529.81;;;6.58;54.78
21826;BME280;11075;47.944;11.776;2023-05-23T01:02:51;94533.72;;;7.59;50.81
21826;BME280;11075;47.944;11.776;2023-05-23T01:05:19;94528.94;;;7.26;51.39
21826;BME280;11075;47.944;11.776;2023-05-23T01:07:49;94528.72;;;6.42;54.70
21826;BME280;11075;47.944;11.776;2023-05-23T01:10:19;94537.81;;;6.92;53.88
21826;BME280;11075;47.944;11.776;2023-05-23T01:13:01;94530.41;;;6.89;53.19
21826;BME280;11075;47.944;11.776;2023-05-23T01:18:27;94522.25;;;6.43;55.82
21826;BME280;11075;47.944;11.776;2023-05-23T01:21:02;94526.13;;;6.11;57.61
21826;BME280;11075;47.944;11.776;2023-05-23T01:29:10;94535.16;;;7.56;50.02
21826;BME280;11075;47.944;11.776;2023-05-23T01:31:43;94529.34;;;6.64;52.57
21826;BME280;11075;47.944;11.776;2023-05-23T01:34:12;94536.53;;;6.29;54.40
21826;BME280;11075;47.944;11.776;2023-05-23T01:36:42;94530.44;;;6.55;54.36
21826;BME280;11075;47.944;11.776;2023-05-23T01:39:09;94531.53;;;6.71;53.50
21826;BME280;11075;47.944;11.776;2023-05-23T01:41:37;94532.47;;;6.67;53.64
21826;BME280;11075;47.944;11.776;2023-05-23T01:44:04;94532.47;;;6.84;52.65
21826;BME280;11075;47.944;11.776;2023-05-23T01:46:33;94532.47;;;6.75;53.78
21826;BME280;11075;47.944;11.776;2023-05-23T01:49:02;94535.16;;;6.84;52.22
21826;BME280;11075;47.944;11.776;2023-05-23T01:51:32;94535.56;;;7.12;51.03
21826;BME280;11075;47.944;11.776;2023-05-23T01:54:00;94543.31;;;6.96;51.52
21826;BME280;11075;47.944;11.776;2023-05-23T01:56:28;94535.63;;;6.60;53.88
21826;BME280;11075;47.944;11.776;2023-05-23T01:58:56;94546.19;;;6.65;53.65
21826;BME280;11075;47.944;11.776;2023-05-23T02:01:23;94545.50;;;6.33;55.10
21826;BME280;11075;47.944;11.776;2023-05-23T02:03:50;94539.19;;;7.33;51.75
21826;BME280;11075;47.944;11.776;2023-05-23T02:06:17;94546.72;;;7.40;51.60
21826;BME280;11075;47.944;11.776;2023-05-23T02:08:45;94540.59;;;7.77;51.44
21826;BME280;11075;47.944;11.776;2023-05-23T02:11:12;94543.50;;;7.93;50.03
21826;BME280;11075;47.944;11.776;2023-05-23T02:13:39;94539.72;;;7.56;51.30
21826;BME280;11075;47.944;11.776;2023-05-23T02:16:05;94555.16;;;7.97;50.29
21826;BME280;11075;47.944;11.776;2023-05-23T02:18:33;94555.13;;;7.68;51.63
21826;BME280;11075;47.944;11.776;2023-05-23T02:21:04;94554.56;;;7.53;51.59
21826;BME280;11075;47.944;11.776;2023-05-23T02:23:31;94555.63;;;7.99;50.64
21826;BME280;11075;47.944;11.776;2023-05-23T02:25:58;94561.75;;;7.23;52.59
21826;BME280;11075;47.944;11.776;2023-05-23T02:28:25;94559.53;;;7.72;51.34
21826;BME280;11075;47.944;11.776;2023-05-23T02:30:51;94559.97;;;7.83;51.25
21826;BME280;11075;47.944;11.776;2023-05-23T02:33:18;94557.44;;;7.40;53.28
21826;BME280;11075;47.944;11.776;2023-05-23T02:35:45;94566.59;;;7.39;54.41
21826;BME280;11075;47.944;11.776;2023-05-23T02:38:14;94569.75;;;8.17;51.30
21826;BME280;11075;47.944;11.776;2023-05-23T02:40:41;94571.41;;;7.63;53.05
21826;BME280;11075;47.944;11.776;2023-05-23T02:43:08;94572.09;;;7.89;52.39
21826;BME280;11075;47.944;11.776;2023-05-23T02:45:35;94564.38;;;8.17;52.03
21826;BME280;11075;47.944;11.776;2023-05-23T02:48:02;94561.47;;;7.63;53.67
21826;BME280;11075;47.944;11.776;2023-05-23T02:50:29;94577.81;;;7.06;56.14
21826;BME280;11075;47.944;11.776;2023-05-23T02:52:57;94569.47;;;7.25;56.41
21826;BME280;11075;47.944;11.776;2023-05-23T02:55:23;94571.56;;;8.04;53.48
21826;BME280;11075;47.944;11.776;2023-05-23T02:57:50;94572.03;;;8.06;52.66
21826;BME280;11075;47.944;11.776;2023-05-23T03:00:18;94568.13;;;7.57;54.65
21826;BME280;11075;47.944;11.776;2023-05-23T03:02:49;94565.31;;;7.45;55.60
21826;BME280;11075;47.944;11.776;2023-05-23T03:05:17;94572.00;;;7.68;54.82
21826;BME280;11075;47.944;11.776;2023-05-23T03:07:43;94573.75;;;6.91;58.84
21826;BME280;11075;47.944;11.776;2023-05-23T03:10:11;94568.91;;;8.25;52.57
21826;BME280;11075;47.944;11.776;2023-05-23T03:12:38;94575.50;;;8.07;54.62
21826;BME280;11075;47.944;11.776;2023-05-23T03:15:06;94572.63;;;6.49;59.81
21826;BME280;11075;47.944;11.776;2023-05-23T03:17:35;94574.66;;;7.21;56.87
21826;BME280;11075;47.944;11.776;2023-05-23T03:20:02;94564.56;;;7.18;57.00
21826;BME280;11075;47.944;11.776;2023-05-23T03:22:30;94582.22;;;7.28;56.99
21826;BME280;11075;47.944;11.776;2023-05-23T03:24:57;94575.97;;;8.09;53.47
21826;BME280;11075;47.944;11.776;2023-05-23T03:27:25;94574.25;;;7.96;54.29
21826;BME280;11075;47.944;11.776;2023-05-23T03:29:52;94570.03;;;7.86;54.36
21826;BME280;11075;47.944;11.776;2023-05-23T03:32:19;94566.56;;;7.85;54.52
21826;BME280;11075;47.944;11.776;2023-05-23T03:34:45;94571.41;;;7.63;55.62
21826;BME280;11075;47.944;11.776;2023-05-23T03:37:12;94577.50;;;7.08;58.04
21826;BME280;11075;47.944;11.776;2023-05-23T03:39:39;94582.19;;;8.21;53.06
21826;BME280;11075;47.944;11.776;2023-05-23T03:42:06;94583.72;;;7.55;56.52
21826;BME280;11075;47.944;11.776;2023-05-23T03:44:33;94578.13;;;7.77;54.39
21826;BME280;11075;47.944;11.776;2023-05-23T03:47:02;94582.47;;;8.29;52.58
21826;BME280;11075;47.944;11.776;2023-05-23T03:49:29;94582.81;;;7.89;54.67
21826;BME280;11075;47.944;11.776;2023-05-23T03:51:56;94588.88;;;7.69;55.16
21826;BME280;11075;47.944;11.776;2023-05-23T03:54:23;94587.97;;;8.32;52.46
21826;BME280;11075;47.944;11.776;2023-05-23T03:56:50;94596.53;;;8.26;51.79
21826;BME280;11075;47.944;11.776;2023-05-23T03:59:18;94593.72;;;7.28;56.79
21826;BME280;11075;47.944;11.776;2023-05-23T04:01:45;94588.31;;;7.92;54.30
21826;BME280;11075;47.944;11.776;2023-05-23T04:04:12;94591.22;;;7.23;57.71
21826;BME280;11075;47.944;11.776;2023-05-23T04:06:39;94587.28;;;7.76;54.51
21826;BME280;11075;47.944;11.776;2023-05-23T04:09:06;94592.06;;;7.62;56.05
21826;BME280;11075;47.944;11.776;2023-05-23T04:11:37;94596.13;;;7.77;55.54
21826;BME280;11075;47.944;11.776;2023-05-23T04:14:03;94594.94;;;7.48;56.57
21826;BME280;11075;47.944;11.776;2023-05-23T04:16:30;94598.63;;;8.20;53.72
21826;BME280;11075;47.944;11.776;2023-05-23T04:18:59;94607.44;;;7.01;59.03
21826;BME280;11075;47.944;11.776;2023-05-23T04:21:31;94609.28;;;7.52;57.39
21826;BME280;11075;47.944;11.776;2023-05-23T04:24:06;94603.69;;;7.75;56.50
21826;BME280;11075;47.944;11.776;2023-05-23T04:26:33;94615.69;;;7.77;56.98
21826;BME280;11075;47.944;11.776;2023-05-23T04:29:03;94614.97;;;7.98;55.79
21826;BME280;11075;47.944;11.776;2023-05-23T04:31:32;94611.19;;;7.43;58.00
21826;BME280;11075;47.944;11.776;2023-05-23T04:34:02;94613.53;;;8.09;56.03
21826;BME280;11075;47.944;11.776;2023-05-23T04:36:34;94618.75;;;8.05;56.42
21826;BME280;11075;47.944;11.776;2023-05-23T04:39:04;94618.25;;;8.41;55.39
21826;BME280;11075;47.944;11.776;2023-05-23T04:41:37;94629.63;;;8.09;57.53
21826;BME280;11075;47.944;11.776;2023-05-23T04:44:16;94619.81;;;8.13;57.49
21826;BME280;11075;47.944;11.776;2023-05-23T04:47:07;94624.34;;;9.01;54.45
21826;BME280;11075;47.944;11.776;2023-05-23T04:50:07;94621.56;;;9.09;54.55
21826;BME280;11075;47.944;11.776;2023-05-23T04:52:35;94629.09;;;8.24;58.70
21826;BME280;11075;47.944;11.776;2023-05-23T04:55:03;94622.25;;;9.06;54.91
21826;BME280;11075;47.944;11.776;2023-05-23T04:57:30;94618.63;;;8.81;56.47
21826;BME280;11075;47.944;11.776;2023-05-23T04:59:58;94627.25;;;8.66;58.47
21826;BME280;11075;47.944;11.776;2023-05-23T05:02:25;94619.25;;;8.78;56.72
21826;BME280;11075;47.944;11.776;2023-05-23T05:04:53;94625.94;;;8.51;58.53
21826;BME280;11075;47.944;11.776;2023-05-23T05:07:20;94623.34;;;9.05;56.68
21826;BME280;11075;47.944;11.776;2023-05-23T05:09:47;94628.00;;;8.96;58.34
21826;BME280;11075;47.944;11.776;2023-05-23T05:12:15;94626.50;;;9.40;56.10
21826;BME280;11075;47.944;11.776;2023-05-23T05:14:42;94609.72;;;9.10;57.33
21826;BME280;11075;47.944;11.776;2023-05-23T05:17:09;94616.44;;;8.75;59.97
21826;BME280;11075;47.944;11.776;2023-05-23T05:19:49;94626.13;;;8.46;61.13
21826;BME280;11075;47.944;11.776;2023-05-23T05:22:16;94620.72;;;8.97;58.87
21826;BME280;11075;47.944;11.776;2023-05-23T05:24:44;94620.97;;;9.25;57.92
21826;BME280;11075;47.944;11.776;2023-05-23T05:27:11;94620.41;;;8.98;58.07
21826;BME280;11075;47.944;11.776;2023-05-23T05:29:38;94610.72;;;9.72;55.40
21826;BME280;11075;47.944;11.776;2023-05-23T05:32:04;94611.59;;;9.64;56.25
21826;BME280;11075;47.944;11.776;2023-05-23T05:34:34;94610.91;;;9.55;57.55
21826;BME280;11075;47.944;11.776;2023-05-23T05:37:04;94608.78;;;9.27;57.07
21826;BME280;11075;47.944;11.776;2023-05-23T05:39:31;94614.66;;;9.87;55.96
21826;BME280;11075;47.944;11.776;2023-05-23T05:41:59;94613.09;;;10.59;53.02
21826;BME280;11075;47.944;11.776;2023-05-23T05:44:29;94617.16;;;10.16;54.32
21826;BME280;11075;47.944;11.776;2023-05-23T05:46:56;94613.88;;;10.71;54.66
21826;BME280;11075;47.944;11.776;2023-05-23T05:49:23;94618.97;;;11.13;52.18
21826;BME280;11075;47.944;11.776;2023-05-23T05:51:50;94616.06;;;10.41;54.46
21826;BME280;11075;47.944;11.776;2023-05-23T05:54:17;94611.59;;;10.86;53.36
21826;BME280;11075;47.944;11.776;2023-05-23T05:56:45;94605.84;;;10.99;52.77
21826;BME280;11075;47.944;11.776;2023-05-23T05:59:13;94603.00;;;10.68;55.24
21826;BME280;11075;47.944;11.776;2023-05-23T06:01:40;94611.66;;;10.00;56.67
21826;BME280;11075;47.944;11.776;2023-05-23T06:04:07;94598.00;;;10.30;55.49
21826;BME280;11075;47.944;11.776;2023-05-23T06:06:34;94608.22;;;11.01;52.06
21826;BME280;11075;47.944;11.776;2023-05-23T06:09:01;94610.22;;;11.32;51.56
21826;BME280;11075;47.944;11.776;2023-05-23T06:11:28;94620.16;;;10.75;54.74
21826;BME280;11075;47.944;11.776;2023-05-23T06:13:55;94613.31;;;10.78;56.52
21826;BME280;11075;47.944;11.776;2023-05-23T06:16:22;94612.66;;;10.20;58.19
21826;BME280;11075;47.944;11.776;2023-05-23T06:18:49;94614.00;;;12.02;51.89
21826;BME280;11075;47.944;11.776;2023-05-23T06:21:16;94614.59;;;11.36;53.96
21826;BME280;11075;47.944;11.776;2023-05-23T06:23:47;94615.91;;;11.70;52.03
21826;BME280;11075;47.944;11.776;2023-05-23T06:26:14;94622.53;;;10.65;57.40
21826;BME280;11075;47.944;11.776;2023-05-23T06:28:41;94625.31;;;11.49;53.09
21826;BME280;11075;47.944;11.776;2023-05-23T06:31:08;94633.03;;;11.34;52.95
21826;BME280;11075;47.944;11.776;2023-05-23T06:33:38;94626.97;;;10.97;54.08
21826;BME280;11075;47.944;11.776;2023-05-23T06:36:05;94633.97;;;10.62;57.30
21826;BME280;11075;47.944;11.776;2023-05-23T06:38:32;94630.13;;;11.55;53.69
21826;BME280;11075;47.944;11.776;2023-05-23T06:41:01;94632.56;;;12.20;51.33
21826;BME280;11075;47.944;11.776;2023-05-23T06:43:30;94641.38;;;12.99;48.31
21826;BME280;11075;47.944;11.776;2023-05-23T06:46:20;94642.44;;;12.44;51.98
21826;BME280;11075;47.944;11.776;2023-05-23T06:48:47;94642.84;;;12.96;48.36
21826;BME280;11075;47.944;11.776;2023-05-23T06:51:19;94645.06;;;12.75;51.20
21826;BME280;11075;47.944;11.776;2023-05-23T06:53:47;94630.19;;;13.00;49.07
21826;BME280;11075;47.944;11.776;2023-05-23T06:56:14;94624.78;;;14.99;44.01
21826;BME280;11075;47.944;11.776;2023-05-23T06:58:53;94620.34;;;14.61;45.62
21826;BME280;11075;47.944;11.776;2023-05-23T07:01:20;94622.75;;;15.22;43.70
21826;BME280;11075;47.944;11.776;2023-05-23T07:03:49;94622.19;;;15.40;43.22
21826;BME280;11075;47.944;11.776;2023-05-23T07:06:16;94623.91;;;14.65;46.34
21826;BME280;11075;47.944;11.776;2023-05-23T07:08:44;94622.50;;;14.25;46.71
21826;BME280;11075;47.944;11.776;2023-05-23T07:11:13;94617.75;;;15.24;44.33
21826;BME280;11075;47.944;11.776;2023-05-23T07:13:43;94622.44;;;15.61;42.56
21826;BME280;11075;47.944;11.776;2023-05-23T07:16:17;94623.91;;;15.51;43.33
21826;BME280;11075;47.944;11.776;2023-05-23T07:19:00;94625.44;;;13.94;46.81
21826;BME280;11075;47.944;11.776;2023-05-23T07:21:28;94617.41;;;16.00;41.65
21826;BME280;11075;47.944;11.776;2023-05-23T07:23:55;94624.41;;;14.74;44.97
21826;BME280;11075;47.944;11.776;2023-05-23T07:26:22;94616.53;;;15.89;44.58
21826;BME280;11075;47.944;11.776;2023-05-23T07:28:53;94628.81;;;15.76;42.07
21826;BME280;11075;47.944;11.776;2023-05-23T07:31:21;94623.53;;;16.34;40.06
21826;BME280;11075;47.944;11.776;2023-05-23T07:33:50;94619.22;;;15.48;43.01
21826;BME280;11075;47.944;11.776;2023-05-23T07:36:30;94618.47;;;14.91;43.10
21826;BME280;11075;47.944;11.776;2023-05-23T07:39:00;94621.59;;;15.90;41.46
21826;BME280;11075;47.944;11.776;2023-05-23T07:41:27;94624.25;;;16.24;40.51
21826;BME280;11075;47.944;11.776;2023-05-23T07:43:54;94619.66;;;15.24;42.04
21826;BME280;11075;47.944;11.776;2023-05-23T07:46:21;94623.16;;;16.32;40.56
21826;BME280;11075;47.944;11.776;2023-05-23T07:48:48;94633.31;;;17.80;39.35
21826;BME280;11075;47.944;11.776;2023-05-23T07:51:15;94631.53;;;16.13;41.07
21826;BME280;11075;47.944;11.776;2023-05-23T07:53:44;94620.84;;;17.76;38.29
21826;BME280;11075;47.944;11.776;2023-05-23T07:56:11;94619.31;;;17.82;39.74
21826;BME280;11075;47.944;11.776;2023-05-23T07:58:40;94631.28;;;15.92;38.40
21826;BME280;11075;47.944;11.776;2023-05-23T08:01:07;94628.91;;;16.71;40.95
21826;BME280;11075;47.944;11.776;2023-05-23T08:04:01;94641.97;;;15.40;42.66
21826;BME280;11075;47.944;11.776;2023-05-23T08:06:42;94639.47;;;14.45;42.60
21826;BME280;11075;47.944;11.776;2023-05-23T08:09:36;94643.25;;;14.63;43.89
21826;BME280;11075;47.944;11.776;2023-05-23T08:12:03;94655.56;;;13.50;44.18
21826;BME280;11075;47.944;11.776;2023-05-23T08:14:32;94650.38;;;15.62;41.86
21826;BME280;11075;47.944;11.776;2023-05-23T08:17:23;94651.28;;;18.06;38.27
21826;BME280;11075;47.944;11.776;2023-05-23T08:19:51;94646.56;;;15.66;41.36
21826;BME280;11075;47.944;11.776;2023-05-23T08:22:18;94652.66;;;15.26;41.65
21826;BME280;11075;47.944;11.776;2023-05-23T08:24:45;94656.66;;;15.06;42.16
21826;BME280;11075;47.944;11.776;2023-05-23T08:27:12;94660.50;;;14.78;41.76
21826;BME280;11075;47.944;11.776;2023-05-23T08:29:40;94655.19;;;15.12;42.17
21826;BME280;11075;47.944;11.776;2023-05-23T08:32:08;94654.41;;;18.23;38.37
21826;BME280;11075;47.944;11.776;2023-05-23T08:34:35;94656.41;;;18.40;38.35
21826;BME280;11075;47.944;11.776;2023-05-23T08:37:02;94648.44;;;16.40;37.60
21826;BME280;11075;47.944;11.776;2023-05-23T08:39:29;94658.50;;;16.36;38.16
21826;BME280;11075;47.944;11.776;2023-05-23T08:42:15;94658.81;;;14.93;40.96
21826;BME280;11075;47.944;11.776;2023-05-23T08:44:42;94663.53;;;14.24;43.73
21826;BME280;11075;47.944;11.776;2023-05-23T08:47:09;94667.66;;;15.80;40.66
21826;BME280;11075;47.944;11.776;2023-05-23T08:50:00;94667.44;;;14.26;43.31
21826;BME280;11075;47.944;11.776;2023-05-23T08:52:28;94657.94;;;15.79;40.93
21826;BME280;11075;47.944;11.776;2023-05-23T08:55:02;94655.06;;;15.65;41.06
21826;BME280;11075;47.944;11.776;2023-05-23T08:57:30;94652.69;;;15.97;38.40
21826;BME280;11075;47.944;11.776;2023-05-23T09:00:06;94654.00;;;17.09;38.49
21826;BME280;11075;47.944;11.776;2023-05-23T09:02:42;94646.47;;;17.57;36.58
21826;BME280;11075;47.944;11.776;2023-05-23T09:05:22;94649.91;;;16.74;38.42
21826;BME280;11075;47.944;11.776;2023-05-23T09:07:49;94650.91;;;18.19;37.55
21826;BME280;11075;47.944;11.776;2023-05-23T09:10:21;94657.50;;;18.07;36.75
21826;BME280;11075;47.944;11.776;2023-05-23T09:12:48;94661.81;;;15.78;39.60
21826;BME280;11075;47.944;11.776;2023-05-23T09:15:16;94665.63;;;16.51;38.51
21826;BME280;11075;47.944;11.776;2023-05-23T09:17:44;94663.56;;;17.54;37.93
21826;BME280;11075;47.944;11.776;2023-05-23T09:20:14;94664.19;;;16.64;38.36
21826;BME280;11075;47.944;11.776;2023-05-23T09:22:48;94676.22;;;19.33;35.11
21826;BME280;11075;47.944;11.776;2023-05-23T09:25:17;94671.69;;;16.78;36.63
21826;BME280;11075;47.944;11.776;2023-05-23T09:27:44;94668.97;;;17.43;36.96
21826;BME280;11075;47.944;11.776;2023-05-23T09:30:14;94666.34;;;17.65;36.57
21826;BME280;11075;47.944;11.776;2023-05-23T09:32:41;94664.72;;;16.80;36.95
21826;BME280;11075;47.944;11.776;2023-05-23T09:35:10;94666.72;;;15.65;38.51
21826;BME280;11075;47.944;11.776;2023-05-23T09:37:42;94671.75;;;16.00;38.14
21826;BME280;11075;47.944;11.776;2023-05-23T09:40:13;94662.22;;;15.80;39.80
21826;BME280;11075;47.944;11.776;2023-05-23T09:42:51;94662.66;;;14.92;41.12
21826;BME280;11075;47.944;11.776;2023-05-23T09:45:18;94664.94;;;15.80;39.78
21826;BME280;11075;47.944;11.776;2023-05-23T09:47:49;94653.72;;;17.28;38.18
21826;BME280;11075;47.944;11.776;2023-05-23T09:50:19;94660.81;;;16.78;39.55
21826;BME280;11075;47.944;11.776;2023-05-23T09:52:47;94657.50;;;20.15;34.42
21826;BME280;11075;47.944;11.776;2023-05-23T09:55:14;94656.41;;;18.54;36.90
21826;BME280;11075;47.944;11.776;2023-05-23T09:57:42;94629.41;;;19.20;35.42
21826;BME280;11075;47.944;11.776;2023-05-23T10:00:39;94660.28;;;21.08;33.23
21826;BME280;11075;47.944;11.776;2023-05-23T10:03:11;94656.03;;;18.84;35.28
21826;BME280;11075;47.944;11.776;2023-05-23T10:05:49;94655.28;;;16.67;37.47
21826;BME280;11075;47.944;11.776;2023-05-23T10:08:31;94651.63;;;16.49;38.23
21826;BME280;11075;47.944;11.776;2023-05-23T10:13:43;94653.72;;;17.28;37.52
21826;BME280;11075;47.944;11.776;2023-05-23T10:16:26;94646.97;;;15.68;40.29
21826;BME280;11075;47.944;11.776;2023-05-23T10:18:56;94640.38;;;19.06;33.70
21826;BME280;11075;47.944;11.776;2023-05-23T10:21:35;94651.22;;;16.47;37.61
21826;BME280;11075;47.944;11.776;2023-05-23T10:24:04;94659.03;;;17.83;36.03
21826;BME280;11075;47.944;11.776;2023-05-23T10:26:33;94649.94;;;17.54;34.45
21826;BME280;11075;47.944;11.776;2023-05-23T10:29:00;94642.94;;;19.59;35.01
21826;BME280;11075;47.944;11.776;2023-05-23T10:31:28;94646.59;;;19.10;33.14
21826;BME280;11075;47.944;11.776;2023-05-23T10:37:04;94629.31;;;17.46;37.53
21826;BME280;11075;47.944;11.776;2023-05-23T10:45:14;94642.88;;;15.85;38.49
21826;BME280;11075;47.944;11.776;2023-05-23T10:47:41;94646.31;;;16.15;38.35
21826;BME280;11075;47.944;11.776;2023-05-23T10:50:11;94657.19;;;15.82;39.56
21826;BME280;11075;47.944;11.776;2023-05-23T10:52:40;94663.13;;;15.27;40.58
21826;BME280;11075;47.944;11.776;2023-05-23T10:55:14;94660.78;;;14.47;41.55
21826;BME280;11075;47.944;11.776;2023-05-23T10:57:43;94658.19;;;14.08;43.26
21826;BME280;11075;47.944;11.776;2023-05-23T11:00:14;94656.00;;;15.16;41.34
21826;BME280;11075;47.944;11.776;2023-05-23T11:03:03;94651.91;;;14.73;41.59
21826;BME280;11075;47.944;11.776;2023-05-23T11:05:32;94651.47;;;15.90;40.48
21826;BME280;11075;47.944;11.776;2023-05-23T11:08:12;94650.47;;;15.69;40.21
21826;BME280;11075;47.944;11.776;2023-05-23T11:10:58;94657.84;;;13.48;44.99
21826;BME280;11075;47.944;11.776;2023-05-23T11:16:29;94641.28;;;16.65;40.47
21826;BME280;11075;47.944;11.776;2023-05-23T11:21:46;94664.72;;;16.36;39.46
21826;BME280;11075;47.944;11.776;2023-05-23T11:24:14;94672.47;;;16.78;39.06
21826;BME280;11075;47.944;11.776;2023-05-23T11:26:58;94662.78;;;14.50;41.13
21826;BME280;11075;47.944;11.776;2023-05-23T11:29:26;94658.72;;;17.15;37.88
21826;BME280;11075;47.944;11.776;2023-05-23T11:31:55;94644.94;;;16.91;38.94
21826;BME280;11075;47.944;11.776;2023-05-23T11:34:24;94655.75;;;16.32;38.36
21826;BME280;11075;47.944;11.776;2023-05-23T11:36:55;94648.34;;;16.26;39.06
21826;BME280;11075;47.944;11.776;2023-05-23T11:39:22;94658.38;;;15.47;40.98
21826;BME280;11075;47.944;11.776;2023-05-23T11:42:01;94647.75;;;15.69;39.09
21826;BME280;11075;47.944;11.776;2023-05-23T11:44:28;94672.78;;;20.64;32.11
21826;BME280;11075;47.944;11.776;2023-05-23T11:47:03;94646.19;;;19.15;32.33
21826;BME280;11075;47.944;11.776;2023-05-23T11:49:31;94649.50;;;19.83;34.12
21826;BME280;11075;47.944;11.776;2023-05-23T11:51:58;94658.88;;;19.75;32.98
21826;BME280;11075;47.944;11.776;2023-05-23T11:54:25;94666.22;;;17.36;35.17
21826;BME280;11075;47.944;11.776;2023-05-23T11:56:53;94649.88;;;16.71;36.10
21826;BME280;11075;47.944;11.776;2023-05-23T11:59:22;94651.50;;;15.57;39.81
21826;BME280;11075;47.944;11.776;2023-05-23T12:01:52;94653.06;;;15.95;38.62
21826;BME280;11075;47.944;11.776;2023-05-23T12:04:20;94652.84;;;16.11;38.00
21826;BME280;11075;47.944;11.776;2023-05-23T12:06:48;94660.00;;;15.89;38.89
21826;BME280;11075;47.944;11.776;2023-05-23T12:09:16;94658.13;;;15.97;38.34
21826;BME280;11075;47.944;11.776;2023-05-23T12:11:43;94669.16;;;16.11;37.32
21826;BME280;11075;47.944;11.776;2023-05-23T12:14:16;94661.53;;;15.23;38.52
21826;BME280;11075;47.944;11.776;2023-05-23T12:16:44;94656.47;;;16.26;36.64
21826;BME280;11075;47.944;11.776;2023-05-23T12:19:13;94675.47;;;19.15;33.36
21826;BME280;11075;47.944;11.776;2023-05-23T12:21:47;94657.66;;;15.24;39.92
21826;BME280;11075;47.944;11.776;2023-05-23T12:24:15;94650.75;;;15.30;41.12
21826;BME280;11075;47.944;11.776;2023-05-23T12:29:35;94666.31;;;14.54;42.63
21826;BME280;11075;47.944;11.776;2023-05-23T12:32:05;94659.63;;;14.97;42.48
21826;BME280;11075;47.944;11.776;2023-05-23T12:34:33;94652.94;;;13.73;42.95
21826;BME280;11075;47.944;11.776;2023-05-23T12:37:00;94647.25;;;15.60;40.43
21826;BME280;11075;47.944;11.776;2023-05-23T12:39:35;94649.50;;;16.28;38.99
21826;BME280;11075;47.944;11.776;2023-05-23T12:42:08;94662.56;;;16.56;38.54
21826;BME280;11075;47.944;11.776;2023-05-23T12:44:35;94658.53;;;14.26;41.77
21826;BME280;11075;47.944;11.776;2023-05-23T12:47:02;94664.22;;;14.93;40.48
21826;BME280;11075;47.944;11.776;2023-05-23T12:49:29;94663.81;;;15.84;38.90
21826;BME280;11075;47.944;11.776;2023-05-23T12:51:56;94659.97;;;14.69;39.85
21826;BME280;11075;47.944;11.776;2023-05-23T12:54:23;94656.09;;;15.53;38.62
21826;BME280;11075;47.944;11.776;2023-05-23T12:56:50;94655.91;;;17.88;35.18
21826;BME280;11075;47.944;11.776;2023-05-23T12:59:17;94648.00;;;17.55;35.07
21826;BME280;11075;47.944;11.776;2023-05-23T13:01:45;94640.34;;;17.92;34.41
21826;BME280;11075;47.944;11.776;2023-05-23T13:04:14;94656.59;;;16.40;36.24
21826;BME280;11075;47.944;11.776;2023-05-23T13:06:41;94648.13;;;14.81;37.93
21826;BME280;11075;47.944;11.776;2023-05-23T13:09:08;94653.41;;;15.90;37.42
21826;BME280;11075;47.944;11.776;2023-05-23T13:11:35;94641.75;;;15.22;37.65
21826;BME280;11075;47.944;11.776;2023-05-23T13:14:03;94642.28;;;15.65;38.44
21826;BME280;11075;47.944;11.776;2023-05-23T13:16:30;94637.88;;;14.93;38.98
21826;BME280;11075;47.944;11.776;2023-05-23T13:18:57;94659.38;;;15.06;39.36
21826;BME280;11075;47.944;11.776;2023-05-23T13:21:24;94648.78;;;14.97;38.49
21826;BME280;11075;47.944;11.776;2023-05-23T13:23:51;94672.66;;;13.74;41.29
21826;BME280;11075;47.944;11.776;2023-05-23T13:26:19;94671.69;;;14.50;40.20
21826;BME280;11075;47.944;11.776;2023-05-23T13:28:45;94663.78;;;12.99;44.19
21826;BME280;11075;47.944;11.776;2023-05-23T13:31:12;94673.16;;;12.23;45.53
21826;BME280;11075;47.944;11.776;2023-05-23T13:33:39;94672.94;;;12.95;44.92
21826;BME280;11075;47.944;11.776;2023-05-23T13:36:07;94665.53;;;13.65;45.67